sensor_id;sensor_type;location;lat;lon;timestamp;temperature;humidity
736;DHT22;352;48.626;9.238;2023-02-28T00:01:29;0.10;94.40
736;DHT22;352;48.626;9.238;2023-02-28T00:06:23;0.00;94.20
736;DHT22;352;48.626;9.238;2023-02-28T00:08:50;0.00;94.60
736;DHT22;352;48.626;9.238;2023-02-28T00:11:17;-0.10;94.80
736;DHT22;352;48.626;9.238;2023-02-28T00:13:45;0.00;94.70
736;DHT22;352;48.626;9.238;2023-02-28T00:16:16;0.00;94.60
736;DHT22;352;48.626;9.238;2023-02-28T00:21:10;0.00;94.40
736;DHT22;352;48.626;9.238;2023-02-28T00:23:37;0.00;94.70
736;DHT22;352;48.626;9.238;2023-02-28T00:26:04;0.00;94.80
736;DHT22;352;48.626;9.238;2023-02-28T00:28:32;0.00;94.90
736;DHT22;352;48.626;9.238;2023-02-28T00:30:59;0.00;95.00
736;DHT22;352;48.626;9.238;2023-02-28T00:33:28;0.00;95.10
736;DHT22;352;48.626;9.238;2023-02-28T00:36:02;0.00;95.30
736;DHT22;352;48.626;9.238;2023-02-28T00:38:29;0.00;95.40
736;DHT22;352;48.626;9.238;2023-02-28T00:40:56;0.00;95.40
736;DHT22;352;48.626;9.238;2023-02-28T00:43:23;-0.10;95.40
736;DHT22;352;48.626;9.238;2023-02-28T00:45:50;0.00;95.60
736;DHT22;352;48.626;9.238;2023-02-28T00:48:17;-0.10;95.60
736;DHT22;352;48.626;9.238;2023-02-28T00:50:48;-0.10;95.80
736;DHT22;352;48.626;9.238;2023-02-28T00:55:42;-0.10;95.50
736;DHT22;352;48.626;9.238;2023-02-28T00:58:08;-0.10;95.90
736;DHT22;352;48.626;9.238;2023-02-28T01:00:35;-0.10;95.90
736;DHT22;352;48.626;9.238;2023-02-28T01:03:02;-0.10;96.00
736;DHT22;352;48.626;9.238;2023-02-28T01:05:29;-0.10;96.10
736;DHT22;352;48.626;9.238;2023-02-28T01:07:57;-0.10;96.10
736;DHT22;352;48.626;9.238;2023-02-28T01:10:24;-0.10;96.40
736;DHT22;352;48.626;9.238;2023-02-28T01:12:51;-0.10;96.10
736;DHT22;352;48.626;9.238;2023-02-28T01:15:18;0.00;96.10
736;DHT22;352;48.626;9.238;2023-02-28T01:17:45;-0.10;96.30
736;DHT22;352;48.626;9.238;2023-02-28T01:20:12;-0.10;96.40
736;DHT22;352;48.626;9.238;2023-02-28T01:22:39;-0.10;96.40
736;DHT22;352;48.626;9.238;2023-02-28T01:25:08;-0.10;96.40
736;DHT22;352;48.626;9.238;2023-02-28T01:27:34;-0.10;96.50
736;DHT22;352;48.626;9.238;2023-02-28T01:30:01;-0.20;96.60
736;DHT22;352;48.626;9.238;2023-02-28T01:32:28;-0.20;96.80
736;DHT22;352;48.626;9.238;2023-02-28T01:34:55;-0.20;97.00
736;DHT22;352;48.626;9.238;2023-02-28T01:39:48;-0.10;96.80
736;DHT22;352;48.626;9.238;2023-02-28T01:42:16;-0.20;97.20
736;DHT22;352;48.626;9.238;2023-02-28T01:45:18;-0.10;97.30
736;DHT22;352;48.626;9.238;2023-02-28T01:47:48;-0.20;97.30
736;DHT22;352;48.626;9.238;2023-02-28T01:50:19;-0.20;97.40
736;DHT22;352;48.626;9.238;2023-02-28T01:52:48;-0.20;97.60
736;DHT22;352;48.626;9.238;2023-02-28T01:55:17;-0.20;97.80
736;DHT22;352;48.626;9.238;2023-02-28T01:57:49;-0.20;97.80
736;DHT22;352;48.626;9.238;2023-02-28T02:00:19;-0.20;98.30
736;DHT22;352;48.626;9.238;2023-02-28T02:02:50;-0.20;98.00
736;DHT22;352;48.626;9.238;2023-02-28T02:05:19;-0.20;98.10
736;DHT22;352;48.626;9.238;2023-02-28T02:07:48;-0.20;98.10
736;DHT22;352;48.626;9.238;2023-02-28T02:10:18;-0.20;98.30
736;DHT22;352;48.626;9.238;2023-02-28T02:13:14;-0.20;98.30
736;DHT22;352;48.626;9.238;2023-02-28T02:15:49;-0.20;98.50
736;DHT22;352;48.626;9.238;2023-02-28T02:18:27;-0.20;98.50
736;DHT22;352;48.626;9.238;2023-02-28T02:28:15;-0.20;98.80
736;DHT22;352;48.626;9.238;2023-02-28T02:31:05;-0.20;99.00
736;DHT22;352;48.626;9.238;2023-02-28T02:36:33;-0.10;99.30
736;DHT22;352;48.626;9.238;2023-02-28T02:39:08;-0.10;99.60
736;DHT22;352;48.626;9.238;2023-02-28T02:41:41;-0.20;99.40
736;DHT22;352;48.626;9.238;2023-02-28T02:44:16;-0.10;99.60
736;DHT22;352;48.626;9.238;2023-02-28T02:46:47;-0.10;99.50
736;DHT22;352;48.626;9.238;2023-02-28T02:49:19;-0.10;99.50
736;DHT22;352;48.626;9.238;2023-02-28T02:51:48;-0.10;99.60
736;DHT22;352;48.626;9.238;2023-02-28T02:54:19;-0.10;99.70
736;DHT22;352;48.626;9.238;2023-02-28T02:56:48;-0.20;99.80
736;DHT22;352;48.626;9.238;2023-02-28T02:59:18;-0.10;99.90
736;DHT22;352;48.626;9.238;2023-02-28T03:01:49;-0.20;99.90
736;DHT22;352;48.626;9.238;2023-02-28T03:04:19;-0.20;99.90
736;DHT22;352;48.626;9.238;2023-02-28T03:06:49;-0.20;99.90
736;DHT22;352;48.626;9.238;2023-02-28T03:09:20;-0.10;99.90
736;DHT22;352;48.626;9.238;2023-02-28T03:11:47;-0.10;99.90
736;DHT22;352;48.626;9.238;2023-02-28T03:14:25;-0.10;99.90
736;DHT22;352;48.626;9.238;2023-02-28T03:17:17;0.00;99.90
736;DHT22;352;48.626;9.238;2023-02-28T03:20:01;0.00;99.90
736;DHT22;352;48.626;9.238;2023-02-28T03:22:56;0.10;99.90
736;DHT22;352;48.626;9.238;2023-02-28T03:25:30;0.10;99.90
736;DHT22;352;48.626;9.238;2023-02-28T03:28:08;0.10;99.90
736;DHT22;352;48.626;9.238;2023-02-28T03:30:41;0.10;99.90
736;DHT22;352;48.626;9.238;2023-02-28T03:33:11;0.10;99.90
736;DHT22;352;48.626;9.238;2023-02-28T03:35:42;0.20;99.90
736;DHT22;352;48.626;9.238;2023-02-28T03:38:16;0.20;99.90
736;DHT22;352;48.626;9.238;2023-02-28T03:40:48;0.10;99.90
736;DHT22;352;48.626;9.238;2023-02-28T03:43:21;0.20;99.90
736;DHT22;352;48.626;9.238;2023-02-28T03:45:50;0.20;99.90
736;DHT22;352;48.626;9.238;2023-02-28T03:48:22;0.20;99.90
736;DHT22;352;48.626;9.238;2023-02-28T03:50:54;0.20;99.90
736;DHT22;352;48.626;9.238;2023-02-28T03:53:27;0.20;99.90
736;DHT22;352;48.626;9.238;2023-02-28T03:55:58;0.20;99.90
736;DHT22;352;48.626;9.238;2023-02-28T03:58:30;0.20;99.90
736;DHT22;352;48.626;9.238;2023-02-28T04:01:02;0.20;99.90
736;DHT22;352;48.626;9.238;2023-02-28T04:03:34;0.20;99.90
736;DHT22;352;48.626;9.238;2023-02-28T04:08:30;0.20;99.90
736;DHT22;352;48.626;9.238;2023-02-28T04:11:01;0.10;99.90
736;DHT22;352;48.626;9.238;2023-02-28T04:13:31;0.10;99.90
736;DHT22;352;48.626;9.238;2023-02-28T04:15:58;0.20;99.90
736;DHT22;352;48.626;9.238;2023-02-28T04:18:25;0.20;99.90
736;DHT22;352;48.626;9.238;2023-02-28T04:20:51;0.20;99.90
736;DHT22;352;48.626;9.238;2023-02-28T04:23:18;0.20;99.90
736;DHT22;352;48.626;9.238;2023-02-28T04:25:46;0.20;99.90
736;DHT22;352;48.626;9.238;2023-02-28T04:28:13;0.10;99.90
736;DHT22;352;48.626;9.238;2023-02-28T04:30:39;0.20;99.90
736;DHT22;352;48.626;9.238;2023-02-28T04:33:06;0.20;99.90
736;DHT22;352;48.626;9.238;2023-02-28T04:35:33;0.30;99.90
736;DHT22;352;48.626;9.238;2023-02-28T04:38:00;0.30;99.90
736;DHT22;352;48.626;9.238;2023-02-28T04:40:26;0.30;99.90
736;DHT22;352;48.626;9.238;2023-02-28T04:42:54;0.40;99.90
736;DHT22;352;48.626;9.238;2023-02-28T04:45:21;0.30;99.90
736;DHT22;352;48.626;9.238;2023-02-28T04:47:48;0.30;99.90
736;DHT22;352;48.626;9.238;2023-02-28T04:50:15;0.20;99.90
736;DHT22;352;48.626;9.238;2023-02-28T04:52:42;0.20;99.90
736;DHT22;352;48.626;9.238;2023-02-28T04:55:09;0.20;99.90
736;DHT22;352;48.626;9.238;2023-02-28T05:00:05;0.20;99.90
736;DHT22;352;48.626;9.238;2023-02-28T05:02:37;0.20;99.90
736;DHT22;352;48.626;9.238;2023-02-28T05:05:04;0.20;99.90
736;DHT22;352;48.626;9.238;2023-02-28T05:07:30;0.20;99.90
736;DHT22;352;48.626;9.238;2023-02-28T05:09:57;0.20;99.90
736;DHT22;352;48.626;9.238;2023-02-28T05:12:24;0.10;99.90
736;DHT22;352;48.626;9.238;2023-02-28T05:14:51;0.20;99.90
736;DHT22;352;48.626;9.238;2023-02-28T05:17:19;0.20;99.90
736;DHT22;352;48.626;9.238;2023-02-28T05:19:45;0.30;99.90
736;DHT22;352;48.626;9.238;2023-02-28T05:22:13;0.30;99.90
736;DHT22;352;48.626;9.238;2023-02-28T05:24:41;0.30;99.90
736;DHT22;352;48.626;9.238;2023-02-28T05:27:08;0.30;99.90
736;DHT22;352;48.626;9.238;2023-02-28T05:29:35;0.40;99.90
736;DHT22;352;48.626;9.238;2023-02-28T05:32:08;0.30;99.90
736;DHT22;352;48.626;9.238;2023-02-28T05:34:36;0.30;99.90
736;DHT22;352;48.626;9.238;2023-02-28T05:37:03;0.30;99.90
736;DHT22;352;48.626;9.238;2023-02-28T05:39:29;0.30;99.90
736;DHT22;352;48.626;9.238;2023-02-28T05:41:56;0.30;99.90
736;DHT22;352;48.626;9.238;2023-02-28T05:44:23;0.30;99.90
736;DHT22;352;48.626;9.238;2023-02-28T05:46:50;0.30;99.90
736;DHT22;352;48.626;9.238;2023-02-28T05:49:17;0.30;99.90
736;DHT22;352;48.626;9.238;2023-02-28T05:51:45;0.40;99.90
736;DHT22;352;48.626;9.238;2023-02-28T05:54:12;0.40;99.90
736;DHT22;352;48.626;9.238;2023-02-28T05:59:09;0.40;99.90
736;DHT22;352;48.626;9.238;2023-02-28T06:01:37;0.40;99.90
736;DHT22;352;48.626;9.238;2023-02-28T06:04:06;0.40;99.90
736;DHT22;352;48.626;9.238;2023-02-28T06:06:33;0.40;99.90
736;DHT22;352;48.626;9.238;2023-02-28T06:09:03;0.40;99.90
736;DHT22;352;48.626;9.238;2023-02-28T06:11:29;0.40;99.90
736;DHT22;352;48.626;9.238;2023-02-28T06:13:57;0.40;99.90
736;DHT22;352;48.626;9.238;2023-02-28T06:16:25;0.40;99.90
736;DHT22;352;48.626;9.238;2023-02-28T06:18:52;0.40;99.90
736;DHT22;352;48.626;9.238;2023-02-28T06:21:21;0.40;99.90
736;DHT22;352;48.626;9.238;2023-02-28T06:23:48;0.40;99.90
736;DHT22;352;48.626;9.238;2023-02-28T06:26:16;0.40;99.90
736;DHT22;352;48.626;9.238;2023-02-28T06:28:43;0.50;99.90
736;DHT22;352;48.626;9.238;2023-02-28T06:31:11;0.40;99.90
736;DHT22;352;48.626;9.238;2023-02-28T06:33:40;0.50;99.90
736;DHT22;352;48.626;9.238;2023-02-28T06:36:09;0.50;99.90
736;DHT22;352;48.626;9.238;2023-02-28T06:38:36;0.50;99.90
736;DHT22;352;48.626;9.238;2023-02-28T06:41:04;0.50;99.90
736;DHT22;352;48.626;9.238;2023-02-28T06:43:35;0.60;99.90
736;DHT22;352;48.626;9.238;2023-02-28T06:46:06;0.60;99.90
736;DHT22;352;48.626;9.238;2023-02-28T06:48:33;0.60;99.90
736;DHT22;352;48.626;9.238;2023-02-28T06:51:05;0.70;99.90
736;DHT22;352;48.626;9.238;2023-02-28T06:53:32;0.70;99.90
736;DHT22;352;48.626;9.238;2023-02-28T06:55:59;0.70;99.90
736;DHT22;352;48.626;9.238;2023-02-28T06:58:26;0.70;99.90
736;DHT22;352;48.626;9.238;2023-02-28T07:00:54;0.80;99.90
736;DHT22;352;48.626;9.238;2023-02-28T07:03:21;0.80;99.90
736;DHT22;352;48.626;9.238;2023-02-28T07:05:50;0.80;99.90
736;DHT22;352;48.626;9.238;2023-02-28T07:08:17;0.80;99.90
736;DHT22;352;48.626;9.238;2023-02-28T07:13:11;0.90;99.90
736;DHT22;352;48.626;9.238;2023-02-28T07:15:38;0.80;99.90
736;DHT22;352;48.626;9.238;2023-02-28T07:18:06;0.90;99.90
736;DHT22;352;48.626;9.238;2023-02-28T07:20:33;0.90;99.90
736;DHT22;352;48.626;9.238;2023-02-28T07:25:28;0.90;99.90
736;DHT22;352;48.626;9.238;2023-02-28T07:27:56;0.80;99.90
736;DHT22;352;48.626;9.238;2023-02-28T07:30:24;0.80;99.90
736;DHT22;352;48.626;9.238;2023-02-28T07:32:51;0.90;99.90
736;DHT22;352;48.626;9.238;2023-02-28T07:35:21;0.90;99.90
736;DHT22;352;48.626;9.238;2023-02-28T07:37:48;0.90;99.90
736;DHT22;352;48.626;9.238;2023-02-28T07:40:15;1.00;99.90
736;DHT22;352;48.626;9.238;2023-02-28T07:42:43;1.00;99.90
736;DHT22;352;48.626;9.238;2023-02-28T07:47:38;1.00;99.90
736;DHT22;352;48.626;9.238;2023-02-28T07:50:06;1.10;99.90
736;DHT22;352;48.626;9.238;2023-02-28T07:52:36;1.20;99.90
736;DHT22;352;48.626;9.238;2023-02-28T07:55:03;1.20;99.90
736;DHT22;352;48.626;9.238;2023-02-28T07:57:30;1.20;99.90
736;DHT22;352;48.626;9.238;2023-02-28T07:59:57;1.40;99.90
736;DHT22;352;48.626;9.238;2023-02-28T08:02:24;1.40;99.90
736;DHT22;352;48.626;9.238;2023-02-28T08:04:51;1.30;99.70
736;DHT22;352;48.626;9.238;2023-02-28T08:07:18;1.40;99.90
736;DHT22;352;48.626;9.238;2023-02-28T08:09:46;1.40;99.70
736;DHT22;352;48.626;9.238;2023-02-28T08:12:12;1.40;99.70
736;DHT22;352;48.626;9.238;2023-02-28T08:14:40;1.40;99.80
736;DHT22;352;48.626;9.238;2023-02-28T08:17:07;1.50;99.60
736;DHT22;352;48.626;9.238;2023-02-28T08:19:33;1.50;99.20
736;DHT22;352;48.626;9.238;2023-02-28T08:22:00;1.60;99.20
736;DHT22;352;48.626;9.238;2023-02-28T08:24:27;1.60;99.20
736;DHT22;352;48.626;9.238;2023-02-28T08:26:55;1.70;99.10
736;DHT22;352;48.626;9.238;2023-02-28T08:29:21;1.70;98.80
736;DHT22;352;48.626;9.238;2023-02-28T08:31:48;1.70;98.50
736;DHT22;352;48.626;9.238;2023-02-28T08:34:15;1.80;98.40
736;DHT22;352;48.626;9.238;2023-02-28T08:36:43;1.70;98.50
736;DHT22;352;48.626;9.238;2023-02-28T08:39:10;1.80;98.70
736;DHT22;352;48.626;9.238;2023-02-28T08:41:37;1.80;98.20
736;DHT22;352;48.626;9.238;2023-02-28T08:44:05;1.90;98.10
736;DHT22;352;48.626;9.238;2023-02-28T08:46:31;2.00;98.00
736;DHT22;352;48.626;9.238;2023-02-28T08:51:27;2.00;97.20
736;DHT22;352;48.626;9.238;2023-02-28T08:53:55;1.90;97.40
736;DHT22;352;48.626;9.238;2023-02-28T08:56:24;1.90;97.60
736;DHT22;352;48.626;9.238;2023-02-28T08:58:51;2.10;97.40
736;DHT22;352;48.626;9.238;2023-02-28T09:01:23;2.10;97.60
736;DHT22;352;48.626;9.238;2023-02-28T09:03:51;2.20;97.30
736;DHT22;352;48.626;9.238;2023-02-28T09:06:19;2.10;97.10
736;DHT22;352;48.626;9.238;2023-02-28T09:08:46;2.20;97.00
736;DHT22;352;48.626;9.238;2023-02-28T09:11:13;2.10;96.90
736;DHT22;352;48.626;9.238;2023-02-28T09:13:40;2.10;96.90
736;DHT22;352;48.626;9.238;2023-02-28T09:16:08;2.10;96.70
736;DHT22;352;48.626;9.238;2023-02-28T09:18:37;2.20;96.80
736;DHT22;352;48.626;9.238;2023-02-28T09:21:05;2.20;96.50
736;DHT22;352;48.626;9.238;2023-02-28T09:23:32;2.20;96.50
736;DHT22;352;48.626;9.238;2023-02-28T09:25:58;2.20;96.20
736;DHT22;352;48.626;9.238;2023-02-28T09:28:25;2.30;96.20
736;DHT22;352;48.626;9.238;2023-02-28T09:30:53;2.30;96.10
736;DHT22;352;48.626;9.238;2023-02-28T09:33:21;2.30;96.20
736;DHT22;352;48.626;9.238;2023-02-28T09:35:50;2.40;97.20
736;DHT22;352;48.626;9.238;2023-02-28T09:38:18;2.50;96.50
736;DHT22;352;48.626;9.238;2023-02-28T09:40:49;2.60;96.00
736;DHT22;352;48.626;9.238;2023-02-28T09:43:18;2.50;95.60
736;DHT22;352;48.626;9.238;2023-02-28T09:45:50;2.50;95.60
736;DHT22;352;48.626;9.238;2023-02-28T09:48:27;2.50;95.80
736;DHT22;352;48.626;9.238;2023-02-28T09:51:02;2.50;95.50
736;DHT22;352;48.626;9.238;2023-02-28T09:53:31;2.50;95.40
736;DHT22;352;48.626;9.238;2023-02-28T09:56:02;2.60;95.40
736;DHT22;352;48.626;9.238;2023-02-28T09:58:35;2.70;95.40
736;DHT22;352;48.626;9.238;2023-02-28T10:01:06;2.70;95.40
736;DHT22;352;48.626;9.238;2023-02-28T10:03:39;2.80;95.20
736;DHT22;352;48.626;9.238;2023-02-28T10:06:13;2.90;95.10
736;DHT22;352;48.626;9.238;2023-02-28T10:08:45;3.00;95.00
736;DHT22;352;48.626;9.238;2023-02-28T10:11:18;3.00;94.80
736;DHT22;352;48.626;9.238;2023-02-28T10:13:51;3.00;94.80
736;DHT22;352;48.626;9.238;2023-02-28T10:16:25;3.00;94.50
736;DHT22;352;48.626;9.238;2023-02-28T10:18:57;3.00;94.30
736;DHT22;352;48.626;9.238;2023-02-28T10:21:31;3.00;94.40
736;DHT22;352;48.626;9.238;2023-02-28T10:24:05;3.00;94.40
736;DHT22;352;48.626;9.238;2023-02-28T10:26:37;3.00;94.60
736;DHT22;352;48.626;9.238;2023-02-28T10:29:03;3.20;94.20
736;DHT22;352;48.626;9.238;2023-02-28T10:31:31;3.20;94.30
736;DHT22;352;48.626;9.238;2023-02-28T10:33:57;3.20;94.40
736;DHT22;352;48.626;9.238;2023-02-28T10:36:24;3.30;94.00
736;DHT22;352;48.626;9.238;2023-02-28T10:38:52;3.30;93.80
736;DHT22;352;48.626;9.238;2023-02-28T10:41:28;3.40;94.10
736;DHT22;352;48.626;9.238;2023-02-28T10:44:13;3.50;93.80
736;DHT22;352;48.626;9.238;2023-02-28T10:46:41;3.80;93.80
736;DHT22;352;48.626;9.238;2023-02-28T10:49:14;4.30;93.10
736;DHT22;352;48.626;9.238;2023-02-28T10:51:41;4.30;93.10
736;DHT22;352;48.626;9.238;2023-02-28T10:54:18;4.60;92.90
736;DHT22;352;48.626;9.238;2023-02-28T10:56:45;5.00;92.00
736;DHT22;352;48.626;9.238;2023-02-28T10:59:29;5.40;91.80
736;DHT22;352;48.626;9.238;2023-02-28T11:01:56;5.70;90.60
736;DHT22;352;48.626;9.238;2023-02-28T11:04:33;5.50;90.00
736;DHT22;352;48.626;9.238;2023-02-28T11:07:03;5.50;90.30
736;DHT22;352;48.626;9.238;2023-02-28T11:09:35;5.40;90.50
736;DHT22;352;48.626;9.238;2023-02-28T11:12:05;5.60;90.80
736;DHT22;352;48.626;9.238;2023-02-28T11:14:35;6.00;90.60
736;DHT22;352;48.626;9.238;2023-02-28T11:17:13;6.10;90.00
736;DHT22;352;48.626;9.238;2023-02-28T11:19:44;6.20;89.40
736;DHT22;352;48.626;9.238;2023-02-28T11:22:17;6.40;88.40
736;DHT22;352;48.626;9.238;2023-02-28T11:24:48;6.30;88.40
736;DHT22;352;48.626;9.238;2023-02-28T11:27:43;7.00;86.80
736;DHT22;352;48.626;9.238;2023-02-28T11:30:30;7.50;84.40
736;DHT22;352;48.626;9.238;2023-02-28T11:32:57;7.20;83.80
736;DHT22;352;48.626;9.238;2023-02-28T11:35:27;7.10;84.10
736;DHT22;352;48.626;9.238;2023-02-28T11:37:55;7.10;83.70
736;DHT22;352;48.626;9.238;2023-02-28T11:40:30;7.00;84.20
736;DHT22;352;48.626;9.238;2023-02-28T11:43:13;7.00;83.60
736;DHT22;352;48.626;9.238;2023-02-28T11:46:01;6.70;83.80
736;DHT22;352;48.626;9.238;2023-02-28T11:48:36;6.50;84.70
736;DHT22;352;48.626;9.238;2023-02-28T11:51:11;6.20;85.60
736;DHT22;352;48.626;9.238;2023-02-28T11:54:08;6.10;87.60
736;DHT22;352;48.626;9.238;2023-02-28T11:56:43;6.20;86.80
736;DHT22;352;48.626;9.238;2023-02-28T11:59:34;6.30;86.60
736;DHT22;352;48.626;9.238;2023-02-28T12:02:24;6.20;86.60
736;DHT22;352;48.626;9.238;2023-02-28T12:07:54;6.30;87.80
736;DHT22;352;48.626;9.238;2023-02-28T12:10:26;6.50;86.70
736;DHT22;352;48.626;9.238;2023-02-28T12:13:04;6.30;85.80
736;DHT22;352;48.626;9.238;2023-02-28T12:15:56;6.40;86.30
736;DHT22;352;48.626;9.238;2023-02-28T12:18:47;6.40;86.40
736;DHT22;352;48.626;9.238;2023-02-28T12:21:25;6.50;87.30
736;DHT22;352;48.626;9.238;2023-02-28T12:24:08;6.40;89.40
736;DHT22;352;48.626;9.238;2023-02-28T12:26:40;6.40;88.70
736;DHT22;352;48.626;9.238;2023-02-28T12:29:19;6.60;88.60
736;DHT22;352;48.626;9.238;2023-02-28T12:31:49;6.50;88.50
736;DHT22;352;48.626;9.238;2023-02-28T12:34:19;6.70;88.30
736;DHT22;352;48.626;9.238;2023-02-28T12:36:47;6.60;87.80
736;DHT22;352;48.626;9.238;2023-02-28T12:39:19;6.40;87.80
736;DHT22;352;48.626;9.238;2023-02-28T12:41:49;6.40;88.80
736;DHT22;352;48.626;9.238;2023-02-28T12:44:23;6.50;89.70
736;DHT22;352;48.626;9.238;2023-02-28T12:46:54;6.50;87.70
736;DHT22;352;48.626;9.238;2023-02-28T12:49:25;6.40;87.30
736;DHT22;352;48.626;9.238;2023-02-28T12:51:56;6.20;87.80
736;DHT22;352;48.626;9.238;2023-02-28T12:54:25;6.10;89.30
736;DHT22;352;48.626;9.238;2023-02-28T12:57:00;6.10;89.40
736;DHT22;352;48.626;9.238;2023-02-28T12:59:35;6.10;88.90
736;DHT22;352;48.626;9.238;2023-02-28T13:02:32;6.10;89.80
736;DHT22;352;48.626;9.238;2023-02-28T13:05:14;6.30;89.90
736;DHT22;352;48.626;9.238;2023-02-28T13:10:41;6.40;88.50
736;DHT22;352;48.626;9.238;2023-02-28T13:13:14;6.40;89.50
736;DHT22;352;48.626;9.238;2023-02-28T13:15:57;6.20;89.60
736;DHT22;352;48.626;9.238;2023-02-28T13:18:29;6.20;90.10
736;DHT22;352;48.626;9.238;2023-02-28T13:20:56;6.10;90.30
736;DHT22;352;48.626;9.238;2023-02-28T13:23:58;6.10;89.70
736;DHT22;352;48.626;9.238;2023-02-28T13:29:31;6.10;90.40
736;DHT22;352;48.626;9.238;2023-02-28T13:35:44;6.10;90.70
736;DHT22;352;48.626;9.238;2023-02-28T13:38:21;6.10;89.60
736;DHT22;352;48.626;9.238;2023-02-28T13:40:48;6.30;90.00
736;DHT22;352;48.626;9.238;2023-02-28T13:43:17;6.50;90.40
736;DHT22;352;48.626;9.238;2023-02-28T13:46:11;6.50;90.60
736;DHT22;352;48.626;9.238;2023-02-28T13:48:38;6.50;90.00
736;DHT22;352;48.626;9.238;2023-02-28T13:51:42;6.50;89.40
736;DHT22;352;48.626;9.238;2023-02-28T13:54:33;6.50;90.00
736;DHT22;352;48.626;9.238;2023-02-28T13:57:15;6.40;89.80
736;DHT22;352;48.626;9.238;2023-02-28T13:59:50;6.40;89.80
736;DHT22;352;48.626;9.238;2023-02-28T14:05:35;6.60;90.30
736;DHT22;352;48.626;9.238;2023-02-28T14:08:07;6.70;90.20
736;DHT22;352;48.626;9.238;2023-02-28T14:10:43;6.60;89.40
736;DHT22;352;48.626;9.238;2023-02-28T14:13:17;6.60;89.80
736;DHT22;352;48.626;9.238;2023-02-28T14:16:03;6.70;89.80
736;DHT22;352;48.626;9.238;2023-02-28T14:18:32;6.70;88.60
736;DHT22;352;48.626;9.238;2023-02-28T14:21:20;6.70;88.80
736;DHT22;352;48.626;9.238;2023-02-28T14:24:09;6.70;88.00
736;DHT22;352;48.626;9.238;2023-02-28T14:27:00;6.80;87.90
736;DHT22;352;48.626;9.238;2023-02-28T14:29:42;6.80;88.20
736;DHT22;352;48.626;9.238;2023-02-28T14:32:15;6.80;87.10
736;DHT22;352;48.626;9.238;2023-02-28T14:34:50;6.90;87.50
736;DHT22;352;48.626;9.238;2023-02-28T14:37:20;6.90;88.90
736;DHT22;352;48.626;9.238;2023-02-28T14:39:51;6.90;87.70
736;DHT22;352;48.626;9.238;2023-02-28T14:42:29;6.90;87.40
736;DHT22;352;48.626;9.238;2023-02-28T14:44:56;6.90;87.50
736;DHT22;352;48.626;9.238;2023-02-28T14:47:26;6.80;87.80
736;DHT22;352;48.626;9.238;2023-02-28T14:49:54;6.90;88.80
736;DHT22;352;48.626;9.238;2023-02-28T14:52:22;6.80;88.70
736;DHT22;352;48.626;9.238;2023-02-28T14:54:54;6.90;89.00
736;DHT22;352;48.626;9.238;2023-02-28T14:57:24;7.00;88.10
736;DHT22;352;48.626;9.238;2023-02-28T15:00:00;7.00;87.70
736;DHT22;352;48.626;9.238;2023-02-28T15:02:31;7.00;88.50
736;DHT22;352;48.626;9.238;2023-02-28T15:05:22;7.00;87.20
736;DHT22;352;48.626;9.238;2023-02-28T15:08:01;6.80;88.00
736;DHT22;352;48.626;9.238;2023-02-28T15:10:29;6.80;88.20
736;DHT22;352;48.626;9.238;2023-02-28T15:12:58;6.90;88.50
736;DHT22;352;48.626;9.238;2023-02-28T15:15:28;6.80;88.50
736;DHT22;352;48.626;9.238;2023-02-28T15:18:03;6.80;87.80
736;DHT22;352;48.626;9.238;2023-02-28T15:20:31;6.70;87.90
736;DHT22;352;48.626;9.238;2023-02-28T15:22:58;6.80;89.00
736;DHT22;352;48.626;9.238;2023-02-28T15:25:26;6.70;88.30
736;DHT22;352;48.626;9.238;2023-02-28T15:27:56;6.60;89.70
736;DHT22;352;48.626;9.238;2023-02-28T15:30:25;6.60;89.60
736;DHT22;352;48.626;9.238;2023-02-28T15:33:05;6.60;88.20
736;DHT22;352;48.626;9.238;2023-02-28T15:35:34;6.40;88.30
736;DHT22;352;48.626;9.238;2023-02-28T15:38:02;6.30;88.70
736;DHT22;352;48.626;9.238;2023-02-28T15:40:32;6.30;89.40
736;DHT22;352;48.626;9.238;2023-02-28T15:43:05;6.20;90.00
736;DHT22;352;48.626;9.238;2023-02-28T15:45:34;6.10;90.10
736;DHT22;352;48.626;9.238;2023-02-28T15:48:04;6.10;89.40
736;DHT22;352;48.626;9.238;2023-02-28T15:50:31;6.20;90.10
736;DHT22;352;48.626;9.238;2023-02-28T15:52:58;6.20;90.20
736;DHT22;352;48.626;9.238;2023-02-28T15:55:29;6.10;90.40
736;DHT22;352;48.626;9.238;2023-02-28T15:57:59;6.10;90.70
736;DHT22;352;48.626;9.238;2023-02-28T16:00:29;6.10;90.20
736;DHT22;352;48.626;9.238;2023-02-28T16:02:58;6.10;90.80
736;DHT22;352;48.626;9.238;2023-02-28T16:05:26;6.00;90.30
736;DHT22;352;48.626;9.238;2023-02-28T16:07:59;6.00;90.50
736;DHT22;352;48.626;9.238;2023-02-28T16:10:27;5.90;90.60
736;DHT22;352;48.626;9.238;2023-02-28T16:12:55;5.90;90.60
736;DHT22;352;48.626;9.238;2023-02-28T16:15:25;5.80;91.30
736;DHT22;352;48.626;9.238;2023-02-28T16:17:54;5.70;91.00
736;DHT22;352;48.626;9.238;2023-02-28T16:20:23;5.80;90.90
736;DHT22;352;48.626;9.238;2023-02-28T16:22:50;5.70;90.60
736;DHT22;352;48.626;9.238;2023-02-28T16:25:18;5.60;91.10
736;DHT22;352;48.626;9.238;2023-02-28T16:27:48;5.60;91.20
736;DHT22;352;48.626;9.238;2023-02-28T16:30:19;5.50;91.10
736;DHT22;352;48.626;9.238;2023-02-28T16:32:47;5.50;91.50
736;DHT22;352;48.626;9.238;2023-02-28T16:35:15;5.40;91.60
736;DHT22;352;48.626;9.238;2023-02-28T16:37:43;5.30;91.70
736;DHT22;352;48.626;9.238;2023-02-28T16:40:14;5.40;91.50
736;DHT22;352;48.626;9.238;2023-02-28T16:42:42;5.40;91.50
736;DHT22;352;48.626;9.238;2023-02-28T16:45:15;5.30;91.90
736;DHT22;352;48.626;9.238;2023-02-28T16:47:43;5.30;91.70
736;DHT22;352;48.626;9.238;2023-02-28T16:50:15;5.30;91.80
736;DHT22;352;48.626;9.238;2023-02-28T16:52:42;5.20;92.40
736;DHT22;352;48.626;9.238;2023-02-28T16:55:09;5.10;92.50
736;DHT22;352;48.626;9.238;2023-02-28T16:57:36;5.10;92.10
736;DHT22;352;48.626;9.238;2023-02-28T17:00:04;5.00;92.00
736;DHT22;352;48.626;9.238;2023-02-28T17:02:31;5.00;92.50
736;DHT22;352;48.626;9.238;2023-02-28T17:04:58;4.80;92.50
736;DHT22;352;48.626;9.238;2023-02-28T17:07:26;4.80;92.40
736;DHT22;352;48.626;9.238;2023-02-28T17:09:52;4.70;92.60
736;DHT22;352;48.626;9.238;2023-02-28T17:12:19;4.70;93.20
736;DHT22;352;48.626;9.238;2023-02-28T17:14:46;4.70;93.50
736;DHT22;352;48.626;9.238;2023-02-28T17:17:16;4.70;93.10
736;DHT22;352;48.626;9.238;2023-02-28T17:19:43;4.70;93.10
736;DHT22;352;48.626;9.238;2023-02-28T17:22:10;4.60;92.80
736;DHT22;352;48.626;9.238;2023-02-28T17:24:38;4.40;93.30
736;DHT22;352;48.626;9.238;2023-02-28T17:27:05;4.40;93.10
736;DHT22;352;48.626;9.238;2023-02-28T17:29:33;4.40;93.40
736;DHT22;352;48.626;9.238;2023-02-28T17:31:59;4.30;93.50
736;DHT22;352;48.626;9.238;2023-02-28T17:34:26;4.30;93.30
736;DHT22;352;48.626;9.238;2023-02-28T17:36:53;4.30;93.50
736;DHT22;352;48.626;9.238;2023-02-28T17:39:20;4.30;93.70
736;DHT22;352;48.626;9.238;2023-02-28T17:41:50;4.10;94.00
736;DHT22;352;48.626;9.238;2023-02-28T17:44:17;4.10;93.90
736;DHT22;352;48.626;9.238;2023-02-28T17:46:45;4.00;94.10
736;DHT22;352;48.626;9.238;2023-02-28T17:49:12;4.00;94.20
736;DHT22;352;48.626;9.238;2023-02-28T17:51:39;3.90;94.30
736;DHT22;352;48.626;9.238;2023-02-28T17:54:06;3.90;94.30
736;DHT22;352;48.626;9.238;2023-02-28T17:56:33;3.90;94.40
736;DHT22;352;48.626;9.238;2023-02-28T17:59:02;3.80;94.30
736;DHT22;352;48.626;9.238;2023-02-28T18:01:28;3.80;94.50
736;DHT22;352;48.626;9.238;2023-02-28T18:03:55;3.80;94.40
736;DHT22;352;48.626;9.238;2023-02-28T18:06:24;3.80;94.50